Jordan, MN

8:50 AM CDT on September 04, 2015 (GMT -0500)
APRSWXNET | | Change Station
CLOSE
Current Station
Personal Weather Station
Location: Jordan, MN
Elevation: 931 ft
Nearby Weather Stations

Elev 931 ft 44.66 °N, 93.52 °W | Updated 23 minutes ago

Mostly Cloudy
Mostly Cloudy
74 °F
Feels Like 72 °F
N
6
Wind Variable Wind from ESE
Gusts 12.0 mph

Today
High -- | Low -- °F
--% Chance of Precip.
Yesterday
High -- | Low -- °F
Precip. -- in
6:40 AM 7:46 PM
Waning Gibbous, 59% visible
Pressure 29.90 in
Visibility 7.0 miles
Clouds Overcast 500 ft
Heat Index 72 °F
Dew Point 72 °F
Humidity 93%
Rainfall in
Snow Depth Not available.
UV 0 out of 12
Pollen 9.10 out of 12
Air Quality Not available.
Flu Activity Not available.
METAR KFCM 041253Z 11007KT 7SM OVC005 23/21 A2992 RMK AO2 SLP125 T02280211
Pressure 29.90 in
Visibility 7.0 miles
Clouds Overcast 500 ft
Heat Index 72 °F
Dew Point 72 °F
Humidity 93%
Rainfall in
Snow Depth Not available.
UV 0 out of 12
Pollen 9.10 out of 12
Air Quality Not available.
Flu Activity Not available.
METAR KFCM 041253Z 11007KT 7SM OVC005 23/21 A2992 RMK AO2 SLP125 T02280211

10-Day Weather Forecast

×

Almanac

Astronomy

Sep. 04, 2015 Rise Set
Actual Time
Civil Twilight
Nautical Twilight
Astronomical Twilight
Moon
Length of Visible Light
Length of Day
Tomorrow will be .
, % of the Moon is Illuminated

Today's Extremes

State Highs State Lows

Community

WunderPhotos

Upload Photos

1,852,181 photos uploaded!

WunderBlogs® & News

Nearby

Air Quality

  Air Quality AQ Index Pollutant
Not available.

Snow Depth

Station Depth Elevation

Earthquake Activity

City Distance Mag. Time & Date
Minimum magnitude displayed is 2.5.

Coastal Water Temperatures

Place Temperature

Stations

Nearby Weather Stations

Station Location Temp. Windchill Dew Point Humidity Wind Precip. Elev Updated Type